Time;durP1;ratioP1;P1;durP2;ratioP2;P2;SDS_P1;SDS_P2;PMS_P1;PMS_P2;Temp;Humidity;BMP_temperature;BMP_pressure;BME280_temperature;BME280_humidity;BME280_pressure;Samples;Min_cycle;Max_cycle;Signal;HPM_P1;HPM_P2
2023/08/17 00:02:10;;;;;;;;;;;;;;;;;;5306581;28;19937;-72
2023/08/17 00:04:41;;;;;;;;;;;;;;;;;;5304997;28;19921;-72
2023/08/17 00:07:12;;;;;;;;;;;;;;;;;;5306483;28;19940;-72
2023/08/17 00:09:43;;;;;;;;;;;;;;;;;;5305833;28;20340;-73
2023/08/17 00:12:14;;;;;;;;;;;;;;;;;;5305680;28;19998;-72
2023/08/17 00:14:45;;;;;;;;;;;;;;;;;;5305604;28;20362;-72
2023/08/17 00:17:16;;;;;;;;;;;;;;;;;;5306438;28;19926;-72
2023/08/17 00:19:47;;;;;;;;;;;;;;;;;;5304671;28;19914;-74
2023/08/17 00:22:19;;;;;;;;;;;;;;;;;;5306182;28;19911;-72
2023/08/17 00:24:50;;;;;;;;;;;;;;;;;;5305354;28;19920;-72
2023/08/17 00:27:21;;;;;;;;;;;;;;;;;;5305121;28;19915;-72
2023/08/17 00:29:52;;;;;;;;;;;;;;;;;;5305208;28;19908;-72
2023/08/17 00:32:23;;;;;;;;;;;;;;;;;;5305699;28;19915;-72
2023/08/17 00:34:54;;;;;;;;;;;;;;;;;;5304562;28;19951;-72
2023/08/17 00:37:25;;;;;;;;;;;;;;;;;;5305286;28;20007;-72
2023/08/17 00:39:56;;;;;;;;;;;;;;;;;;5304710;28;19914;-72
2023/08/17 00:42:29;;;;;;;;;;;;;;;;;;5286349;28;20316;-72
2023/08/17 00:45:00;;;;;;;;;;;;;;;;;;5305469;28;19916;-72
2023/08/17 00:47:31;;;;;;;;;;;;;;;;;;5303927;28;20420;-72
2023/08/17 00:50:03;;;;;;;;;;;;;;;;;;5305572;28;19908;-72
2023/08/17 00:52:34;;;;;;;;;;;;;;;;;;5304756;28;19908;-72
2023/08/17 00:55:05;;;;;;;;;;;;;;;;;;5304517;28;19908;-72
2023/08/17 00:57:36;;;;;;;;;;;;;;;;;;5304953;28;20362;-72
2023/08/17 01:00:07;;;;;;;;;;;;;;;;;;5305810;28;19994;-72
2023/08/17 01:02:38;;;;;;;;;;;;;;;;;;5303668;28;19912;-72
2023/08/17 01:05:10;;;;;;;;;;;;;;;;;;5305055;28;19920;-72
2023/08/17 01:07:41;;;;;;;;;;;;;;;;;;5304780;28;19908;-73
2023/08/17 01:10:12;;;;;;;;;;;;;;;;;;5286247;28;19908;-72
2023/08/17 01:12:43;;;;;;;;;;;;;;;;;;5304474;28;19919;-72
2023/08/17 01:15:14;;;;;;;;;;;;;;;;;;5304330;28;19916;-72
2023/08/17 01:17:45;;;;;;;;;;;;;;;;;;5304431;28;19981;-72
2023/08/17 01:20:17;;;;;;;;;;;;;;;;;;5305156;28;20290;-72
2023/08/17 01:22:48;;;;;;;;;;;;;;;;;;5303584;28;19950;-72
2023/08/17 01:25:19;;;;;;;;;;;;;;;;;;5304902;28;19927;-72
2023/08/17 01:27:51;;;;;;;;;;;;;;;;;;5304144;28;19927;-72
2023/08/17 01:30:22;;;;;;;;;;;;;;;;;;5304044;28;19908;-72
2023/08/17 01:32:53;;;;;;;;;;;;;;;;;;5304184;28;19916;-72
2023/08/17 01:35:24;;;;;;;;;;;;;;;;;;5304438;28;19909;-72
2023/08/17 01:37:55;;;;;;;;;;;;;;;;;;5303315;28;20390;-73
2023/08/17 01:40:28;;;;;;;;;;;;;;;;;;5304236;28;19908;-72
2023/08/17 01:42:59;;;;;;;;;;;;;;;;;;5304160;28;19912;-72
2023/08/17 01:45:30;;;;;;;;;;;;;;;;;;5303195;28;19922;-72
2023/08/17 01:48:02;;;;;;;;;;;;;;;;;;5304361;28;20385;-71
2023/08/17 01:50:33;;;;;;;;;;;;;;;;;;5302769;28;19923;-72
2023/08/17 01:53:04;;;;;;;;;;;;;;;;;;5304108;28;19908;-72
2023/08/17 01:55:35;;;;;;;;;;;;;;;;;;5303700;28;19969;-72
2023/08/17 01:58:06;;;;;;;;;;;;;;;;;;5302778;28;19908;-72
2023/08/17 02:00:37;;;;;;;;;;;;;;;;;;5303375;28;20007;-71
2023/08/17 02:03:08;;;;;;;;;;;;;;;;;;5304007;28;19912;-71
2023/08/17 02:05:39;;;;;;;;;;;;;;;;;;5302444;28;19973;-71
2023/08/17 02:08:11;;;;;;;;;;;;;;;;;;5304172;28;20332;-72
2023/08/17 02:10:42;;;;;;;;;;;;;;;;;;5303394;28;20321;-72
2023/08/17 02:13:13;;;;;;;;;;;;;;;;;;5302870;28;19912;-72
2023/08/17 02:15:44;;;;;;;;;;;;;;;;;;5303232;28;19909;-71
2023/08/17 02:18:15;;;;;;;;;;;;;;;;;;5302942;28;19908;-72
2023/08/17 02:20:46;;;;;;;;;;;;;;;;;;5303287;28;20304;-72
2023/08/17 02:23:17;;;;;;;;;;;;;;;;;;5303804;28;19934;-71
2023/08/17 02:25:48;;;;;;;;;;;;;;;;;;5302215;28;19916;-72
2023/08/17 02:28:19;;;;;;;;;;;;;;;;;;5285596;28;19965;-72
2023/08/17 02:30:50;;;;;;;;;;;;;;;;;;5303031;28;19916;-72
2023/08/17 02:33:22;;;;;;;;;;;;;;;;;;5302890;28;19912;-71
2023/08/17 02:35:53;;;;;;;;;;;;;;;;;;5302783;28;19934;-71
2023/08/17 02:38:24;;;;;;;;;;;;;;;;;;5303256;28;20412;-71
2023/08/17 02:40:55;;;;;;;;;;;;;;;;;;5302724;28;19931;-71
2023/08/17 02:43:26;;;;;;;;;;;;;;;;;;5303603;28;20370;-71
2023/08/17 02:45:59;;;;;;;;;;;;;;;;;;5303142;28;19916;-72
2023/08/17 02:48:30;;;;;;;;;;;;;;;;;;5302167;28;19912;-72
2023/08/17 02:51:01;;;;;;;;;;;;;;;;;;5303352;28;19908;-71
2023/08/17 02:53:32;;;;;;;;;;;;;;;;;;5302248;28;20278;-72
2023/08/17 02:56:03;;;;;;;;;;;;;;;;;;5303592;28;19947;-71
2023/08/17 02:58:35;;;;;;;;;;;;;;;;;;5302940;28;19999;-72
2023/08/17 03:01:06;;;;;;;;;;;;;;;;;;5302574;28;19923;-71
2023/08/17 03:03:37;;;;;;;;;;;;;;;;;;5302491;28;19932;-72
2023/08/17 03:06:08;;;;;;;;;;;;;;;;;;5303390;28;19928;-71
2023/08/17 03:08:40;;;;;;;;;;;;;;;;;;5301732;28;19909;-72
2023/08/17 03:11:11;;;;;;;;;;;;;;;;;;5306569;28;20323;-71
2023/08/17 03:13:45;;;;;;;;;;;;;;;;;;5306858;28;20053;-71
2023/08/17 03:16:16;;;;;;;;;;;;;;;;;;5306532;28;19917;-72
2023/08/17 03:18:48;;;;;;;;;;;;;;;;;;5306607;28;19916;-72
2023/08/17 03:21:19;;;;;;;;;;;;;;;;;;5307203;28;20355;-71
2023/08/17 03:23:50;;;;;;;;;;;;;;;;;;5305890;28;20400;-72
2023/08/17 03:26:21;;;;;;;;;;;;;;;;;;5307059;28;19966;-72
2023/08/17 03:28:52;;;;;;;;;;;;;;;;;;5305827;28;20005;-72
2023/08/17 03:31:24;;;;;;;;;;;;;;;;;;5307162;28;20362;-72
2023/08/17 03:33:55;;;;;;;;;;;;;;;;;;5306966;28;19996;-72
2023/08/17 03:36:26;;;;;;;;;;;;;;;;;;5305837;28;19927;-71
2023/08/17 03:38:57;;;;;;;;;;;;;;;;;;5306715;28;19953;-72
2023/08/17 03:41:30;;;;;;;;;;;;;;;;;;5306664;28;20004;-72
2023/08/17 03:44:01;;;;;;;;;;;;;;;;;;5306293;28;19911;-72
2023/08/17 03:46:32;;;;;;;;;;;;;;;;;;5306685;28;19916;-72
2023/08/17 03:49:03;;;;;;;;;;;;;;;;;;5306787;28;19916;-71
2023/08/17 03:51:35;;;;;;;;;;;;;;;;;;5305235;28;19934;-72
2023/08/17 03:54:07;;;;;;;;;;;;;;;;;;5306785;28;19950;-72
2023/08/17 03:56:38;;;;;;;;;;;;;;;;;;5305871;28;19908;-72
2023/08/17 03:59:09;;;;;;;;;;;;;;;;;;5306469;28;19912;-71
2023/08/17 04:01:41;;;;;;;;;;;;;;;;;;5305806;28;19961;-72
2023/08/17 04:04:12;;;;;;;;;;;;;;;;;;5305652;28;19912;-71
2023/08/17 04:06:43;;;;;;;;;;;;;;;;;;5305583;28;19920;-72
2023/08/17 04:09:14;;;;;;;;;;;;;;;;;;5306425;28;19908;-72
2023/08/17 04:11:45;;;;;;;;;;;;;;;;;;5304886;28;19915;-71
2023/08/17 04:14:16;;;;;;;;;;;;;;;;;;5306145;28;19908;-72
2023/08/17 04:16:47;;;;;;;;;;;;;;;;;;5305453;28;19912;-71
2023/08/17 04:19:18;;;;;;;;;;;;;;;;;;5305402;28;19961;-71
2023/08/17 04:21:49;;;;;;;;;;;;;;;;;;5304505;28;19931;-72
2023/08/17 04:24:21;;;;;;;;;;;;;;;;;;5305990;28;19909;-71
2023/08/17 04:26:52;;;;;;;;;;;;;;;;;;5304377;28;19912;-71
2023/08/17 04:29:23;;;;;;;;;;;;;;;;;;5305797;28;19908;-71
2023/08/17 04:31:54;;;;;;;;;;;;;;;;;;5304637;28;19915;-72
2023/08/17 04:34:25;;;;;;;;;;;;;;;;;;5305391;28;19908;-71
2023/08/17 04:36:56;;;;;;;;;;;;;;;;;;5304995;28;19924;-71
2023/08/17 04:39:27;;;;;;;;;;;;;;;;;;5304210;28;20282;-71
2023/08/17 04:41:58;;;;;;;;;;;;;;;;;;5304525;28;19912;-71
2023/08/17 04:44:30;;;;;;;;;;;;;;;;;;5304840;28;19966;-72
2023/08/17 04:47:02;;;;;;;;;;;;;;;;;;5304756;28;19916;-72
2023/08/17 04:49:33;;;;;;;;;;;;;;;;;;5304996;28;19956;-72
2023/08/17 04:52:04;;;;;;;;;;;;;;;;;;5305419;28;19957;-72
2023/08/17 04:54:36;;;;;;;;;;;;;;;;;;5304143;28;19908;-73
2023/08/17 04:57:07;;;;;;;;;;;;;;;;;;5305574;28;19948;-73
2023/08/17 04:59:38;;;;;;;;;;;;;;;;;;5304856;28;19908;-72
2023/08/17 05:02:09;;;;;;;;;;;;;;;;;;5303878;28;20039;-72
2023/08/17 05:04:41;;;;;;;;;;;;;;;;;;5304480;28;19912;-72
2023/08/17 05:07:12;;;;;;;;;;;;;;;;;;5304203;28;19913;-71
2023/08/17 05:09:44;;;;;;;;;;;;;;;;;;5304559;28;19916;-72
2023/08/17 05:12:15;;;;;;;;;;;;;;;;;;5305034;28;19908;-72
2023/08/17 05:14:46;;;;;;;;;;;;;;;;;;5285420;28;19915;-71
2023/08/17 05:17:17;;;;;;;;;;;;;;;;;;5304145;28;19915;-71
2023/08/17 05:19:48;;;;;;;;;;;;;;;;;;5304247;28;19908;-71
2023/08/17 05:22:19;;;;;;;;;;;;;;;;;;5304084;28;20274;-71
2023/08/17 05:24:51;;;;;;;;;;;;;;;;;;5303994;28;19935;-71
2023/08/17 05:27:22;;;;;;;;;;;;;;;;;;5304641;28;19915;-71
2023/08/17 05:29:53;;;;;;;;;;;;;;;;;;5303440;28;19908;-71
2023/08/17 05:32:24;;;;;;;;;;;;;;;;;;5304470;28;19908;-71
2023/08/17 05:34:55;;;;;;;;;;;;;;;;;;5304064;28;19908;-71
2023/08/17 05:37:26;;;;;;;;;;;;;;;;;;5303204;28;19927;-71
2023/08/17 05:39:57;;;;;;;;;;;;;;;;;;5303934;28;19908;-71
2023/08/17 05:42:28;;;;;;;;;;;;;;;;;;5303187;28;19912;-71
2023/08/17 05:44:59;;;;;;;;;;;;;;;;;;5304168;28;19920;-71
2023/08/17 05:47:31;;;;;;;;;;;;;;;;;;5303648;28;19915;-71
2023/08/17 05:50:02;;;;;;;;;;;;;;;;;;5303487;28;20367;-71
2023/08/17 05:52:33;;;;;;;;;;;;;;;;;;5303507;28;19936;-72
2023/08/17 05:55:04;;;;;;;;;;;;;;;;;;5304206;28;19914;-72
2023/08/17 05:57:35;;;;;;;;;;;;;;;;;;5302783;28;19916;-72
2023/08/17 06:00:08;;;;;;;;;;;;;;;;;;5304101;28;19908;-72
2023/08/17 06:02:39;;;;;;;;;;;;;;;;;;5303427;28;20374;-72
2023/08/17 06:05:10;;;;;;;;;;;;;;;;;;5302981;28;19955;-72
2023/08/17 06:07:41;;;;;;;;;;;;;;;;;;5303312;28;19908;-72
2023/08/17 06:10:12;;;;;;;;;;;;;;;;;;5303856;28;19908;-72
2023/08/17 06:12:43;;;;;;;;;;;;;;;;;;5302443;28;19919;-72
2023/08/17 06:15:15;;;;;;;;;;;;;;;;;;5303594;28;19915;-73
2023/08/17 06:17:46;;;;;;;;;;;;;;;;;;5302418;28;20002;-73
2023/08/17 06:20:17;;;;;;;;;;;;;;;;;;5303706;28;20027;-72
2023/08/17 06:22:49;;;;;;;;;;;;;;;;;;5303033;28;19965;-72
2023/08/17 06:25:20;;;;;;;;;;;;;;;;;;5302732;28;20011;-73
2023/08/17 06:27:51;;;;;;;;;;;;;;;;;;5302845;28;19915;-72
2023/08/17 06:30:23;;;;;;;;;;;;;;;;;;5302930;28;20391;-72
2023/08/17 06:32:54;;;;;;;;;;;;;;;;;;5302488;28;19908;-71
2023/08/17 06:35:25;;;;;;;;;;;;;;;;;;5303407;28;19908;-73
2023/08/17 06:37:57;;;;;;;;;;;;;;;;;;5302887;28;20397;-73
2023/08/17 06:40:28;;;;;;;;;;;;;;;;;;5308431;28;19953;-73
2023/08/17 06:43:00;;;;;;;;;;;;;;;;;;5323651;28;19911;-71
2023/08/17 06:45:31;;;;;;;;;;;;;;;;;;5322516;28;20286;-71
2023/08/17 06:48:02;;;;;;;;;;;;;;;;;;5324420;28;19922;-71
2023/08/17 06:50:33;;;;;;;;;;;;;;;;;;5323308;28;20350;-72
2023/08/17 06:53:04;;;;;;;;;;;;;;;;;;5321713;28;20019;-71
2023/08/17 06:55:35;;;;;;;;;;;;;;;;;;5323736;28;19908;-72
2023/08/17 06:58:06;;;;;;;;;;;;;;;;;;5324475;28;20305;-71
2023/08/17 07:00:40;;;;;;;;;;;;;;;;;;5322994;28;19915;-72
2023/08/17 07:03:11;;;;;;;;;;;;;;;;;;5324370;28;19914;-72
2023/08/17 07:05:42;;;;;;;;;;;;;;;;;;5323823;28;19916;-72
2023/08/17 07:08:13;;;;;;;;;;;;;;;;;;5323735;28;20354;-72
2023/08/17 07:10:45;;;;;;;;;;;;;;;;;;5323565;28;19950;-72
2023/08/17 07:13:16;;;;;;;;;;;;;;;;;;5323354;28;20362;-72
2023/08/17 07:15:47;;;;;;;;;;;;;;;;;;5322630;28;19916;-72
2023/08/17 07:18:18;;;;;;;;;;;;;;;;;;5324095;28;19908;-72
2023/08/17 07:20:49;;;;;;;;;;;;;;;;;;5322834;28;20079;-71
2023/08/17 07:23:20;;;;;;;;;;;;;;;;;;5323956;28;19972;-72
2023/08/17 07:25:51;;;;;;;;;;;;;;;;;;5323307;28;19959;-72
2023/08/17 07:28:22;;;;;;;;;;;;;;;;;;5323215;28;19912;-73
2023/08/17 07:30:53;;;;;;;;;;;;;;;;;;5323341;28;20270;-72
2023/08/17 07:33:25;;;;;;;;;;;;;;;;;;5323802;28;19912;-72
2023/08/17 07:35:58;;;;;;;;;;;;;;;;;;5322769;28;19908;-73
2023/08/17 07:38:29;;;;;;;;;;;;;;;;;;5323626;28;19908;-75
2023/08/17 07:41:00;;;;;;;;;;;;;;;;;;5323818;28;19984;-74
2023/08/17 07:43:31;;;;;;;;;;;;;;;;;;5322817;28;20315;-75
2023/08/17 07:46:02;;;;;;;;;;;;;;;;;;5324046;28;19944;-73
2023/08/17 07:48:33;;;;;;;;;;;;;;;;;;5322986;28;19912;-72
2023/08/17 07:51:04;;;;;;;;;;;;;;;;;;5322858;28;19915;-73
2023/08/17 07:53:35;;;;;;;;;;;;;;;;;;5322381;28;19915;-73
2023/08/17 07:56:07;;;;;;;;;;;;;;;;;;5323313;28;20261;-73
2023/08/17 07:58:38;;;;;;;;;;;;;;;;;;5326890;28;19990;-73
2023/08/17 08:01:09;;;;;;;;;;;;;;;;;;5327251;28;20018;-72
2023/08/17 08:03:40;;;;;;;;;;;;;;;;;;5326140;28;19911;-72
2023/08/17 08:06:12;;;;;;;;;;;;;;;;;;5327617;28;20388;-72
2023/08/17 08:08:43;;;;;;;;;;;;;;;;;;5327005;28;19912;-77
2023/08/17 08:11:14;;;;;;;;;;;;;;;;;;5326639;28;20377;-75
2023/08/17 08:13:45;;;;;;;;;;;;;;;;;;5326715;28;19915;-73
2023/08/17 08:16:16;;;;;;;;;;;;;;;;;;5327270;28;19907;-73
2023/08/17 08:18:48;;;;;;;;;;;;;;;;;;5325680;28;19946;-73
2023/08/17 08:21:19;;;;;;;;;;;;;;;;;;5326613;28;19907;-75
2023/08/17 08:23:50;;;;;;;;;;;;;;;;;;5326440;28;20095;-75
2023/08/17 08:26:21;;;;;;;;;;;;;;;;;;5324827;28;19919;-74
2023/08/17 08:28:52;;;;;;;;;;;;;;;;;;5324311;28;19908;-75
2023/08/17 08:31:23;;;;;;;;;;;;;;;;;;5324341;28;20250;-75
2023/08/17 08:33:54;;;;;;;;;;;;;;;;;;5324718;28;19908;-75
2023/08/17 08:36:26;;;;;;;;;;;;;;;;;;5324640;28;19920;-74
2023/08/17 08:38:57;;;;;;;;;;;;;;;;;;5323743;28;19910;-74
2023/08/17 08:41:28;;;;;;;;;;;;;;;;;;5325777;28;19908;-74
2023/08/17 08:43:59;;;;;;;;;;;;;;;;;;5326612;28;20071;-74
2023/08/17 08:46:32;;;;;;;;;;;;;;;;;;5325348;28;20276;-74
2023/08/17 08:49:03;;;;;;;;;;;;;;;;;;5326534;28;19930;-74
2023/08/17 08:51:34;;;;;;;;;;;;;;;;;;5325805;28;19994;-74
2023/08/17 08:54:08;;;;;;;;;;;;;;;;;;5325923;28;20002;-74
2023/08/17 08:56:39;;;;;;;;;;;;;;;;;;5325860;28;20011;-73
2023/08/17 08:59:10;;;;;;;;;;;;;;;;;;5326025;28;19998;-74
2023/08/17 09:01:41;;;;;;;;;;;;;;;;;;5325597;28;20258;-73
2023/08/17 09:04:12;;;;;;;;;;;;;;;;;;5324860;28;19973;-75
2023/08/17 09:06:43;;;;;;;;;;;;;;;;;;5324961;28;19923;-75
2023/08/17 09:09:15;;;;;;;;;;;;;;;;;;5325967;28;19907;-75
2023/08/17 09:11:46;;;;;;;;;;;;;;;;;;5325701;28;19937;-74
2023/08/17 09:14:17;;;;;;;;;;;;;;;;;;5325509;28;20278;-74
2023/08/17 09:16:48;;;;;;;;;;;;;;;;;;5325463;28;19921;-73
2023/08/17 09:19:20;;;;;;;;;;;;;;;;;;5324192;28;19999;-73
2023/08/17 09:21:51;;;;;;;;;;;;;;;;;;5322925;28;20007;-74
2023/08/17 09:24:22;;;;;;;;;;;;;;;;;;5324076;28;20002;-73
2023/08/17 09:26:54;;;;;;;;;;;;;;;;;;5323121;28;19930;-73
2023/08/17 09:29:25;;;;;;;;;;;;;;;;;;5322503;28;19998;-74
2023/08/17 09:31:56;;;;;;;;;;;;;;;;;;5323452;28;19987;-73
2023/08/17 09:34:27;;;;;;;;;;;;;;;;;;5324639;28;20324;-74
2023/08/17 09:36:58;;;;;;;;;;;;;;;;;;5324844;28;19920;-73
2023/08/17 09:39:30;;;;;;;;;;;;;;;;;;5324969;28;19914;-73
2023/08/17 09:42:02;;;;;;;;;;;;;;;;;;5324926;28;20362;-73
2023/08/17 09:44:33;;;;;;;;;;;;;;;;;;5325037;28;19914;-74
2023/08/17 09:47:04;;;;;;;;;;;;;;;;;;5325432;28;19908;-75
2023/08/17 09:49:35;;;;;;;;;;;;;;;;;;5324366;28;20293;-74
2023/08/17 09:52:06;;;;;;;;;;;;;;;;;;5325342;28;19908;-77
2023/08/17 09:54:38;;;;;;;;;;;;;;;;;;5324695;28;19915;-74
2023/08/17 09:57:09;;;;;;;;;;;;;;;;;;5324412;28;19907;-74
2023/08/17 09:59:40;;;;;;;;;;;;;;;;;;5324134;28;19964;-74
2023/08/17 10:02:11;;;;;;;;;;;;;;;;;;5324786;28;20402;-74
2023/08/17 10:04:42;;;;;;;;;;;;;;;;;;5323836;28;20775;-74
2023/08/17 10:07:13;;;;;;;;;;;;;;;;;;5325184;28;19934;-74
2023/08/17 10:09:44;;;;;;;;;;;;;;;;;;5323311;28;19908;-76
2023/08/17 10:12:15;;;;;;;;;;;;;;;;;;5323847;28;20226;-74
2023/08/17 10:14:46;;;;;;;;;;;;;;;;;;5324311;28;19923;-73
2023/08/17 10:17:18;;;;;;;;;;;;;;;;;;5323868;28;20393;-74
2023/08/17 10:19:51;;;;;;;;;;;;;;;;;;5323606;28;19911;-74
2023/08/17 10:22:22;;;;;;;;;;;;;;;;;;5324780;28;20392;-73
2023/08/17 10:24:54;;;;;;;;;;;;;;;;;;5323426;28;19911;-73
2023/08/17 10:27:25;;;;;;;;;;;;;;;;;;5324508;28;19914;-74
2023/08/17 10:29:56;;;;;;;;;;;;;;;;;;5324654;28;19998;-74
2023/08/17 10:32:27;;;;;;;;;;;;;;;;;;5323951;28;19908;-73
2023/08/17 10:34:58;;;;;;;;;;;;;;;;;;5324481;28;19914;-73
2023/08/17 10:37:29;;;;;;;;;;;;;;;;;;5323977;28;19967;-73
2023/08/17 10:40:01;;;;;;;;;;;;;;;;;;5323750;28;19908;-75
2023/08/17 10:42:32;;;;;;;;;;;;;;;;;;5323820;28;19908;-74
2023/08/17 10:45:03;;;;;;;;;;;;;;;;;;5323854;28;19924;-75
2023/08/17 10:47:36;;;;;;;;;;;;;;;;;;5323890;28;19908;-75
2023/08/17 10:50:07;;;;;;;;;;;;;;;;;;5324302;28;19919;-74
2023/08/17 10:52:38;;;;;;;;;;;;;;;;;;5323199;28;19926;-74
2023/08/17 10:55:09;;;;;;;;;;;;;;;;;;5324117;28;20392;-73
2023/08/17 10:57:41;;;;;;;;;;;;;;;;;;5323824;28;19908;-74
2023/08/17 11:00:13;;;;;;;;;;;;;;;;;;5323440;28;20354;-74
2023/08/17 11:02:44;;;;;;;;;;;;;;;;;;5323413;28;19907;-74
2023/08/17 11:05:17;;;;;;;;;;;;;;;;;;5324488;28;19923;-74
2023/08/17 11:07:48;;;;;;;;;;;;;;;;;;5322975;28;19908;-74
2023/08/17 11:10:19;;;;;;;;;;;;;;;;;;5324179;28;19907;-75
2023/08/17 11:12:50;;;;;;;;;;;;;;;;;;5322993;28;20278;-73
2023/08/17 11:15:21;;;;;;;;;;;;;;;;;;5324073;28;19918;-74
2023/08/17 11:17:52;;;;;;;;;;;;;;;;;;5323404;28;19908;-72
2023/08/17 11:20:23;;;;;;;;;;;;;;;;;;5322803;28;19915;-71
2023/08/17 11:22:54;;;;;;;;;;;;;;;;;;5323733;28;19912;-72
2023/08/17 11:25:26;;;;;;;;;;;;;;;;;;5323717;28;20388;-72
2023/08/17 11:27:57;;;;;;;;;;;;;;;;;;5323039;28;19915;-71
2023/08/17 11:30:29;;;;;;;;;;;;;;;;;;5324065;28;19933;-71
2023/08/17 11:33:00;;;;;;;;;;;;;;;;;;5328247;28;20434;-73
2023/08/17 11:35:31;;;;;;;;;;;;;;;;;;5326866;28;19908;-72
2023/08/17 11:38:03;;;;;;;;;;;;;;;;;;5327924;28;19920;-71
2023/08/17 11:40:34;;;;;;;;;;;;;;;;;;5327552;28;19950;-71
2023/08/17 11:43:05;;;;;;;;;;;;;;;;;;5327503;28;19908;-71
2023/08/17 11:45:36;;;;;;;;;;;;;;;;;;5327104;28;20010;-72
2023/08/17 11:48:07;;;;;;;;;;;;;;;;;;5327141;28;19947;-71
2023/08/17 11:50:39;;;;;;;;;;;;;;;;;;5327316;28;19946;-72
2023/08/17 11:53:10;;;;;;;;;;;;;;;;;;5327835;28;19912;-72
2023/08/17 11:55:41;;;;;;;;;;;;;;;;;;5326174;28;20043;-73
2023/08/17 11:58:12;;;;;;;;;;;;;;;;;;5327655;28;20282;-73
2023/08/17 12:00:44;;;;;;;;;;;;;;;;;;5326673;28;19915;-73
2023/08/17 12:03:15;;;;;;;;;;;;;;;;;;5325907;28;20274;-73
2023/08/17 12:05:48;;;;;;;;;;;;;;;;;;5326207;28;20018;-73
2023/08/17 12:08:19;;;;;;;;;;;;;;;;;;5327430;28;19907;-73
2023/08/17 12:10:50;;;;;;;;;;;;;;;;;;5325982;28;20403;-73
2023/08/17 12:13:21;;;;;;;;;;;;;;;;;;5327541;28;19930;-73
2023/08/17 12:15:53;;;;;;;;;;;;;;;;;;5326713;28;19915;-72
2023/08/17 12:18:25;;;;;;;;;;;;;;;;;;5326710;28;19953;-73
2023/08/17 12:20:56;;;;;;;;;;;;;;;;;;5327234;28;20003;-72
2023/08/17 12:23:27;;;;;;;;;;;;;;;;;;5326132;28;19908;-72
2023/08/17 12:25:58;;;;;;;;;;;;;;;;;;5326431;28;19963;-72
2023/08/17 12:28:29;;;;;;;;;;;;;;;;;;5326083;28;19950;-72
2023/08/17 12:31:00;;;;;;;;;;;;;;;;;;5326223;28;19916;-72
2023/08/17 12:33:31;;;;;;;;;;;;;;;;;;5326036;28;19982;-72
2023/08/17 12:36:04;;;;;;;;;;;;;;;;;;5326648;28;19912;-72
2023/08/17 12:38:35;;;;;;;;;;;;;;;;;;5325368;28;19959;-72
2023/08/17 12:41:06;;;;;;;;;;;;;;;;;;5326884;28;20298;-72
2023/08/17 12:43:37;;;;;;;;;;;;;;;;;;5325214;28;19911;-73
2023/08/17 12:46:08;;;;;;;;;;;;;;;;;;5325954;28;19916;-72
2023/08/17 12:48:39;;;;;;;;;;;;;;;;;;5325956;28;19915;-73
2023/08/17 12:51:10;;;;;;;;;;;;;;;;;;5325814;28;20422;-74
2023/08/17 12:53:42;;;;;;;;;;;;;;;;;;5325733;28;20350;-73
2023/08/17 12:56:13;;;;;;;;;;;;;;;;;;5326279;28;20342;-72
2023/08/17 12:58:44;;;;;;;;;;;;;;;;;;5324883;28;20064;-72
2023/08/17 13:01:15;;;;;;;;;;;;;;;;;;5326152;28;20063;-71
2023/08/17 13:03:46;;;;;;;;;;;;;;;;;;5325717;28;19919;-72
2023/08/17 13:06:18;;;;;;;;;;;;;;;;;;5320689;28;19975;-72
2023/08/17 13:08:49;;;;;;;;;;;;;;;;;;5324895;28;20484;-72
2023/08/17 13:11:20;;;;;;;;;;;;;;;;;;5325455;28;19908;-72
2023/08/17 13:13:51;;;;;;;;;;;;;;;;;;5324430;28;20302;-72
2023/08/17 13:16:22;;;;;;;;;;;;;;;;;;5325462;28;20004;-72
2023/08/17 13:18:54;;;;;;;;;;;;;;;;;;5325902;28;20325;-72
2023/08/17 13:21:25;;;;;;;;;;;;;;;;;;5324479;28;19907;-72
2023/08/17 13:23:56;;;;;;;;;;;;;;;;;;5325407;28;19907;-71
2023/08/17 13:26:27;;;;;;;;;;;;;;;;;;5324842;28;20335;-72
2023/08/17 13:28:58;;;;;;;;;;;;;;;;;;5325684;28;19959;-72
2023/08/17 13:31:29;;;;;;;;;;;;;;;;;;5325394;28;20388;-72
2023/08/17 13:34:00;;;;;;;;;;;;;;;;;;5324420;28;19916;-71
2023/08/17 13:36:31;;;;;;;;;;;;;;;;;;5324760;28;20400;-72
2023/08/17 13:39:02;;;;;;;;;;;;;;;;;;5325440;28;19908;-71
2023/08/17 13:41:33;;;;;;;;;;;;;;;;;;5324041;28;19947;-72
2023/08/17 13:44:05;;;;;;;;;;;;;;;;;;5325525;28;19950;-71
2023/08/17 13:46:36;;;;;;;;;;;;;;;;;;5324280;28;20011;-72
2023/08/17 13:49:07;;;;;;;;;;;;;;;;;;5324123;28;19908;-73
2023/08/17 13:51:38;;;;;;;;;;;;;;;;;;5324693;28;19981;-73
2023/08/17 13:54:09;;;;;;;;;;;;;;;;;;5324623;28;19935;-72
2023/08/17 13:56:42;;;;;;;;;;;;;;;;;;5322972;28;19912;-70
2023/08/17 13:59:13;;;;;;;;;;;;;;;;;;5324623;28;19912;-71
2023/08/17 14:01:44;;;;;;;;;;;;;;;;;;5323089;28;20387;-72
2023/08/17 14:04:17;;;;;;;;;;;;;;;;;;5325589;28;19986;-71
2023/08/17 14:06:48;;;;;;;;;;;;;;;;;;5324729;28;20333;-71
2023/08/17 14:09:19;;;;;;;;;;;;;;;;;;5324518;28;19908;-71
2023/08/17 14:11:50;;;;;;;;;;;;;;;;;;5324626;28;19915;-72
2023/08/17 14:14:22;;;;;;;;;;;;;;;;;;5324990;28;19908;-72
2023/08/17 14:16:53;;;;;;;;;;;;;;;;;;5323844;28;20261;-74
2023/08/17 14:19:24;;;;;;;;;;;;;;;;;;5324850;28;19960;-74
2023/08/17 14:21:55;;;;;;;;;;;;;;;;;;5324804;28;20261;-74
2023/08/17 14:24:26;;;;;;;;;;;;;;;;;;5324086;28;19914;-75
2023/08/17 14:26:58;;;;;;;;;;;;;;;;;;5324529;28;20027;-73
2023/08/17 14:29:29;;;;;;;;;;;;;;;;;;5324713;28;19912;-74
2023/08/17 14:32:00;;;;;;;;;;;;;;;;;;5323717;28;19911;-73
2023/08/17 14:34:31;;;;;;;;;;;;;;;;;;5324135;28;19990;-72
2023/08/17 14:37:02;;;;;;;;;;;;;;;;;;5323879;28;19959;-73
2023/08/17 14:39:33;;;;;;;;;;;;;;;;;;5324075;28;19911;-73
2023/08/17 14:42:04;;;;;;;;;;;;;;;;;;5324385;28;19908;-74
2023/08/17 14:44:35;;;;;;;;;;;;;;;;;;5323415;28;20286;-73
2023/08/17 14:47:06;;;;;;;;;;;;;;;;;;5324304;28;19916;-74
2023/08/17 14:49:38;;;;;;;;;;;;;;;;;;5323912;28;19907;-73
2023/08/17 14:52:09;;;;;;;;;;;;;;;;;;5323466;28;20370;-73
2023/08/17 14:54:40;;;;;;;;;;;;;;;;;;5324140;28;19919;-73
2023/08/17 14:57:12;;;;;;;;;;;;;;;;;;5324317;28;19915;-74
2023/08/17 14:59:43;;;;;;;;;;;;;;;;;;5321813;28;19912;-74
2023/08/17 15:02:16;;;;;;;;;;;;;;;;;;5322203;28;19908;-73
2023/08/17 15:04:47;;;;;;;;;;;;;;;;;;5321394;28;20241;-74
2023/08/17 15:07:20;;;;;;;;;;;;;;;;;;5325770;28;19931;-73
2023/08/17 15:09:51;;;;;;;;;;;;;;;;;;5326009;28;19951;-73
2023/08/17 15:12:22;;;;;;;;;;;;;;;;;;5325750;28;19958;-73
2023/08/17 15:14:53;;;;;;;;;;;;;;;;;;5326801;28;20285;-73
2023/08/17 15:17:24;;;;;;;;;;;;;;;;;;5328421;28;19927;-73
2023/08/17 15:19:55;;;;;;;;;;;;;;;;;;5327636;28;19908;-73
2023/08/17 15:22:26;;;;;;;;;;;;;;;;;;5328379;28;19911;-74
2023/08/17 15:24:57;;;;;;;;;;;;;;;;;;5328159;28;19960;-73
2023/08/17 15:27:28;;;;;;;;;;;;;;;;;;5327105;28;19965;-74
2023/08/17 15:29:59;;;;;;;;;;;;;;;;;;5328370;28;20319;-73
2023/08/17 15:32:31;;;;;;;;;;;;;;;;;;5327783;28;19911;-72
2023/08/17 15:35:02;;;;;;;;;;;;;;;;;;5327954;28;19908;-71
2023/08/17 15:37:34;;;;;;;;;;;;;;;;;;5327371;28;20385;-72
2023/08/17 15:40:05;;;;;;;;;;;;;;;;;;5327284;28;19907;-72
2023/08/17 15:42:36;;;;;;;;;;;;;;;;;;5327736;28;19914;-73
2023/08/17 15:45:07;;;;;;;;;;;;;;;;;;5327917;28;20374;-73
2023/08/17 15:47:39;;;;;;;;;;;;;;;;;;5326714;28;19914;-73
2023/08/17 15:50:10;;;;;;;;;;;;;;;;;;5327896;28;19934;-73
2023/08/17 15:52:41;;;;;;;;;;;;;;;;;;5327537;28;19935;-72
2023/08/17 15:55:12;;;;;;;;;;;;;;;;;;5327188;28;19947;-72
2023/08/17 15:57:43;;;;;;;;;;;;;;;;;;5322024;28;20449;-73
2023/08/17 16:00:14;;;;;;;;;;;;;;;;;;5327461;28;19911;-73
2023/08/17 16:02:45;;;;;;;;;;;;;;;;;;5326366;28;19908;-73
2023/08/17 16:05:16;;;;;;;;;;;;;;;;;;5327322;28;20284;-73
2023/08/17 16:07:47;;;;;;;;;;;;;;;;;;5325433;28;19928;-73
2023/08/17 16:10:18;;;;;;;;;;;;;;;;;;5325633;28;20336;-73
2023/08/17 16:12:50;;;;;;;;;;;;;;;;;;5324902;28;20351;-73
2023/08/17 16:15:21;;;;;;;;;;;;;;;;;;5326694;28;20289;-72
2023/08/17 16:17:52;;;;;;;;;;;;;;;;;;5325438;28;20015;-72
2023/08/17 16:20:23;;;;;;;;;;;;;;;;;;5327227;28;20336;-73
2023/08/17 16:22:54;;;;;;;;;;;;;;;;;;5326283;28;19986;-72
2023/08/17 16:25:25;;;;;;;;;;;;;;;;;;5326837;28;19965;-73
2023/08/17 16:27:56;;;;;;;;;;;;;;;;;;5326598;28;20359;-72
2023/08/17 16:30:27;;;;;;;;;;;;;;;;;;5326038;28;19954;-73
2023/08/17 16:32:58;;;;;;;;;;;;;;;;;;5326767;28;20299;-71
2023/08/17 16:35:29;;;;;;;;;;;;;;;;;;5326623;28;19908;-71
2023/08/17 16:38:01;;;;;;;;;;;;;;;;;;5325827;28;19930;-72
2023/08/17 16:40:32;;;;;;;;;;;;;;;;;;5326200;28;19955;-72
2023/08/17 16:43:03;;;;;;;;;;;;;;;;;;5326734;28;19908;-71
2023/08/17 16:45:34;;;;;;;;;;;;;;;;;;5325539;28;19926;-72
2023/08/17 16:48:05;;;;;;;;;;;;;;;;;;5326893;28;19916;-73
2023/08/17 16:50:36;;;;;;;;;;;;;;;;;;5325368;28;19938;-71
2023/08/17 16:53:07;;;;;;;;;;;;;;;;;;5326967;28;20366;-72
2023/08/17 16:55:39;;;;;;;;;;;;;;;;;;5326267;28;19908;-71
2023/08/17 16:58:10;;;;;;;;;;;;;;;;;;5325767;28;19909;-72
2023/08/17 17:00:41;;;;;;;;;;;;;;;;;;5326251;28;19908;-71
2023/08/17 17:03:12;;;;;;;;;;;;;;;;;;5326552;28;19952;-72
2023/08/17 17:05:44;;;;;;;;;;;;;;;;;;5325044;28;19920;-72
2023/08/17 17:08:15;;;;;;;;;;;;;;;;;;5326495;28;20316;-71
2023/08/17 17:10:46;;;;;;;;;;;;;;;;;;5325838;28;19908;-72
2023/08/17 17:13:17;;;;;;;;;;;;;;;;;;5325638;28;19907;-72